Decoded Metar for PAVL (KIVALINA in AK, USA) (IATA:KVL) | Meteo·Mobile Aviation Weather
aviador You're here:

PAVL Decoded Metar

KIVALINA in AK, USA
Report Time2018-09-20 02:53:00
UTC Time2018-09-20 03:26:57
Flight Rules vfr VFR
Wind280° at 07 kt
W.Decomp.*RWY 30: 5.7 kt HW 4 kt LCW
W.Rank280° ranks 20
Current wind is below 280° avg. (9.5)
Visibility9999 m
Phenomena:N/A
Clouds:Broken 047 Hf
Expected CloudBase > 2,000 ft AGL from Temp-Dew spread
Ceiling4,700 ft
Temp11°C (ISA -4)
Dew Point06°C (72% RH)
AAT7.6°C
QNH1018 hPa
Density Alt-509 ft
Elevation10 ft
Report Wrong Elevation
Raw Report
PAVL 200253Z AUTO 28007KT 9SM BKN047 11/06 A3006 RMK AO2 SLP178
60000 T01060061 58005 TSNO=

Extra information for PAVL:More info

Metar Taf Metar & Taf Last 4 Metars F.Rules Stats Wind Profile Meteogram Temp Stats Airport Information Weather charts Add Link Nearby VenuesMetar ALERT Operation Metar Decoded Social comments

AIRNAV info for PAVL